sensor_id;sensor_type;location;lat;lon;timestamp;temperature;humidity
23359;DHT22;11851;50.796;4.372;2022-09-09T00:01:59;17.30;99.90
23359;DHT22;11851;50.796;4.372;2022-09-09T00:04:35;17.30;99.90
23359;DHT22;11851;50.796;4.372;2022-09-09T00:09:47;17.20;99.90
23359;DHT22;11851;50.796;4.372;2022-09-09T00:15:21;17.20;99.90
23359;DHT22;11851;50.796;4.372;2022-09-09T00:20:47;17.20;99.90
23359;DHT22;11851;50.796;4.372;2022-09-09T00:23:24;17.20;99.90
23359;DHT22;11851;50.796;4.372;2022-09-09T00:31:34;17.30;99.90
23359;DHT22;11851;50.796;4.372;2022-09-09T00:34:12;17.20;99.90
23359;DHT22;11851;50.796;4.372;2022-09-09T00:36:40;17.20;99.90
23359;DHT22;11851;50.796;4.372;2022-09-09T00:39:13;17.20;99.90
23359;DHT22;11851;50.796;4.372;2022-09-09T00:44:37;17.30;99.90
23359;DHT22;11851;50.796;4.372;2022-09-09T00:58:00;17.30;99.90
23359;DHT22;11851;50.796;4.372;2022-09-09T01:00:35;17.40;99.90
23359;DHT22;11851;50.796;4.372;2022-09-09T01:03:33;17.40;99.90
23359;DHT22;11851;50.796;4.372;2022-09-09T01:06:02;17.30;99.90
23359;DHT22;11851;50.796;4.372;2022-09-09T01:11:22;17.40;99.90
23359;DHT22;11851;50.796;4.372;2022-09-09T01:13:56;17.40;99.90
23359;DHT22;11851;50.796;4.372;2022-09-09T01:16:25;17.40;99.90
23359;DHT22;11851;50.796;4.372;2022-09-09T01:18:53;17.40;99.90
23359;DHT22;11851;50.796;4.372;2022-09-09T01:26:51;17.40;99.90
23359;DHT22;11851;50.796;4.372;2022-09-09T01:29:19;17.40;99.90
23359;DHT22;11851;50.796;4.372;2022-09-09T01:34:25;17.30;99.90
23359;DHT22;11851;50.796;4.372;2022-09-09T01:37:07;17.30;99.90
23359;DHT22;11851;50.796;4.372;2022-09-09T01:39:35;17.30;99.90
23359;DHT22;11851;50.796;4.372;2022-09-09T01:42:03;17.30;99.90
23359;DHT22;11851;50.796;4.372;2022-09-09T01:44:30;17.30;99.90
23359;DHT22;11851;50.796;4.372;2022-09-09T01:46:56;17.30;99.90
23359;DHT22;11851;50.796;4.372;2022-09-09T01:49:22;17.30;99.90
23359;DHT22;11851;50.796;4.372;2022-09-09T01:51:51;17.20;99.90
23359;DHT22;11851;50.796;4.372;2022-09-09T01:54:19;17.30;99.90
23359;DHT22;11851;50.796;4.372;2022-09-09T02:00:03;17.20;99.90
23359;DHT22;11851;50.796;4.372;2022-09-09T02:02:52;17.20;99.90
23359;DHT22;11851;50.796;4.372;2022-09-09T02:05:39;17.20;99.90
23359;DHT22;11851;50.796;4.372;2022-09-09T02:08:10;17.20;99.90
23359;DHT22;11851;50.796;4.372;2022-09-09T02:10:45;17.20;99.90
23359;DHT22;11851;50.796;4.372;2022-09-09T02:13:18;17.20;99.90
23359;DHT22;11851;50.796;4.372;2022-09-09T02:18:42;17.30;99.90
23359;DHT22;11851;50.796;4.372;2022-09-09T02:21:11;17.30;99.90
23359;DHT22;11851;50.796;4.372;2022-09-09T02:23:40;17.20;99.90
23359;DHT22;11851;50.796;4.372;2022-09-09T02:26:08;17.10;99.90
23359;DHT22;11851;50.796;4.372;2022-09-09T02:28:37;17.10;99.90
23359;DHT22;11851;50.796;4.372;2022-09-09T02:31:04;17.10;99.90
23359;DHT22;11851;50.796;4.372;2022-09-09T02:33:35;17.10;99.90
23359;DHT22;11851;50.796;4.372;2022-09-09T02:36:03;17.10;99.90
23359;DHT22;11851;50.796;4.372;2022-09-09T02:38:35;17.10;99.90
23359;DHT22;11851;50.796;4.372;2022-09-09T02:41:01;17.00;99.90
23359;DHT22;11851;50.796;4.372;2022-09-09T02:43:34;17.00;99.90
23359;DHT22;11851;50.796;4.372;2022-09-09T02:56:53;17.10;99.90
23359;DHT22;11851;50.796;4.372;2022-09-09T02:59:22;17.10;99.90
23359;DHT22;11851;50.796;4.372;2022-09-09T03:01:50;17.10;99.90
23359;DHT22;11851;50.796;4.372;2022-09-09T03:04:15;17.00;99.90
23359;DHT22;11851;50.796;4.372;2022-09-09T03:06:41;16.90;99.90
23359;DHT22;11851;50.796;4.372;2022-09-09T03:09:08;16.90;99.90
23359;DHT22;11851;50.796;4.372;2022-09-09T03:11:36;16.90;99.90
23359;DHT22;11851;50.796;4.372;2022-09-09T03:14:02;16.90;99.90
23359;DHT22;11851;50.796;4.372;2022-09-09T03:16:27;16.80;99.90
23359;DHT22;11851;50.796;4.372;2022-09-09T03:18:53;16.80;99.90
23359;DHT22;11851;50.796;4.372;2022-09-09T03:21:18;16.90;99.90
23359;DHT22;11851;50.796;4.372;2022-09-09T03:23:44;16.90;99.90
23359;DHT22;11851;50.796;4.372;2022-09-09T03:26:10;16.90;99.90
23359;DHT22;11851;50.796;4.372;2022-09-09T03:28:36;16.90;99.90
23359;DHT22;11851;50.796;4.372;2022-09-09T03:31:03;16.90;99.90
23359;DHT22;11851;50.796;4.372;2022-09-09T03:33:30;16.90;99.90
23359;DHT22;11851;50.796;4.372;2022-09-09T03:35:57;17.00;99.90
23359;DHT22;11851;50.796;4.372;2022-09-09T03:38:25;17.00;99.90
23359;DHT22;11851;50.796;4.372;2022-09-09T03:40:53;17.00;99.90
23359;DHT22;11851;50.796;4.372;2022-09-09T03:43:23;17.00;99.90
23359;DHT22;11851;50.796;4.372;2022-09-09T03:45:49;17.00;99.90
23359;DHT22;11851;50.796;4.372;2022-09-09T03:48:19;16.90;99.90
23359;DHT22;11851;50.796;4.372;2022-09-09T03:50:49;16.90;99.90
23359;DHT22;11851;50.796;4.372;2022-09-09T03:53:17;16.90;99.90
23359;DHT22;11851;50.796;4.372;2022-09-09T03:55:47;17.00;99.90
23359;DHT22;11851;50.796;4.372;2022-09-09T03:58:14;17.10;99.90
23359;DHT22;11851;50.796;4.372;2022-09-09T04:00:40;17.00;99.90
23359;DHT22;11851;50.796;4.372;2022-09-09T04:03:11;17.00;99.90
23359;DHT22;11851;50.796;4.372;2022-09-09T04:05:39;17.00;99.90
23359;DHT22;11851;50.796;4.372;2022-09-09T04:08:07;17.10;99.90
23359;DHT22;11851;50.796;4.372;2022-09-09T04:10:34;17.20;99.90
23359;DHT22;11851;50.796;4.372;2022-09-09T04:13:02;17.20;99.90
23359;DHT22;11851;50.796;4.372;2022-09-09T04:15:27;17.10;99.90
23359;DHT22;11851;50.796;4.372;2022-09-09T04:17:54;17.20;99.90
23359;DHT22;11851;50.796;4.372;2022-09-09T04:20:20;17.10;99.90
23359;DHT22;11851;50.796;4.372;2022-09-09T04:22:47;17.10;99.90
23359;DHT22;11851;50.796;4.372;2022-09-09T04:25:13;17.00;99.90
23359;DHT22;11851;50.796;4.372;2022-09-09T04:27:39;17.00;99.90
23359;DHT22;11851;50.796;4.372;2022-09-09T04:30:05;17.10;99.90
23359;DHT22;11851;50.796;4.372;2022-09-09T04:32:35;17.00;99.90
23359;DHT22;11851;50.796;4.372;2022-09-09T04:35:02;16.90;99.90
23359;DHT22;11851;50.796;4.372;2022-09-09T04:37:28;16.80;99.90
23359;DHT22;11851;50.796;4.372;2022-09-09T04:39:54;16.90;99.90
23359;DHT22;11851;50.796;4.372;2022-09-09T04:42:19;16.90;99.90
23359;DHT22;11851;50.796;4.372;2022-09-09T04:44:45;17.00;99.90
23359;DHT22;11851;50.796;4.372;2022-09-09T04:47:11;16.90;99.90
23359;DHT22;11851;50.796;4.372;2022-09-09T04:49:36;16.80;99.90
23359;DHT22;11851;50.796;4.372;2022-09-09T04:52:03;16.90;99.90
23359;DHT22;11851;50.796;4.372;2022-09-09T04:54:29;16.90;99.90
23359;DHT22;11851;50.796;4.372;2022-09-09T04:56:55;16.90;99.90
23359;DHT22;11851;50.796;4.372;2022-09-09T04:59:21;16.80;99.90
23359;DHT22;11851;50.796;4.372;2022-09-09T05:01:48;16.90;99.90
23359;DHT22;11851;50.796;4.372;2022-09-09T05:04:14;16.80;99.90
23359;DHT22;11851;50.796;4.372;2022-09-09T05:06:42;16.90;99.90
23359;DHT22;11851;50.796;4.372;2022-09-09T05:09:08;16.80;99.90
23359;DHT22;11851;50.796;4.372;2022-09-09T05:11:34;16.80;99.90
23359;DHT22;11851;50.796;4.372;2022-09-09T05:14:04;16.70;99.90
23359;DHT22;11851;50.796;4.372;2022-09-09T05:16:30;16.80;99.90
23359;DHT22;11851;50.796;4.372;2022-09-09T05:18:56;16.90;99.90
23359;DHT22;11851;50.796;4.372;2022-09-09T05:21:23;16.90;99.90
23359;DHT22;11851;50.796;4.372;2022-09-09T05:23:51;16.90;99.90
23359;DHT22;11851;50.796;4.372;2022-09-09T05:26:21;17.00;99.90
23359;DHT22;11851;50.796;4.372;2022-09-09T05:28:47;17.10;99.90
23359;DHT22;11851;50.796;4.372;2022-09-09T05:31:14;17.20;99.90
23359;DHT22;11851;50.796;4.372;2022-09-09T05:33:41;17.20;99.90
23359;DHT22;11851;50.796;4.372;2022-09-09T05:36:16;17.20;99.90
23359;DHT22;11851;50.796;4.372;2022-09-09T05:38:43;17.10;99.90
23359;DHT22;11851;50.796;4.372;2022-09-09T05:41:10;17.10;99.90
23359;DHT22;11851;50.796;4.372;2022-09-09T05:43:41;17.20;99.90
23359;DHT22;11851;50.796;4.372;2022-09-09T05:46:20;17.20;99.90
23359;DHT22;11851;50.796;4.372;2022-09-09T05:48:47;17.30;99.90
23359;DHT22;11851;50.796;4.372;2022-09-09T05:51:15;17.30;99.90
23359;DHT22;11851;50.796;4.372;2022-09-09T05:53:43;17.30;99.90
23359;DHT22;11851;50.796;4.372;2022-09-09T05:56:11;17.30;99.90
23359;DHT22;11851;50.796;4.372;2022-09-09T05:58:37;17.20;99.90
23359;DHT22;11851;50.796;4.372;2022-09-09T06:01:12;17.20;99.90
23359;DHT22;11851;50.796;4.372;2022-09-09T06:03:43;17.20;99.90
23359;DHT22;11851;50.796;4.372;2022-09-09T06:06:11;17.30;99.90
23359;DHT22;11851;50.796;4.372;2022-09-09T06:08:39;17.40;99.90
23359;DHT22;11851;50.796;4.372;2022-09-09T06:11:10;17.40;99.90
23359;DHT22;11851;50.796;4.372;2022-09-09T06:13:37;17.50;99.90
23359;DHT22;11851;50.796;4.372;2022-09-09T06:16:16;17.60;99.90
23359;DHT22;11851;50.796;4.372;2022-09-09T06:18:42;17.60;99.90
23359;DHT22;11851;50.796;4.372;2022-09-09T06:21:19;17.60;99.90
23359;DHT22;11851;50.796;4.372;2022-09-09T06:23:46;17.60;99.90
23359;DHT22;11851;50.796;4.372;2022-09-09T06:28:39;17.40;99.90
23359;DHT22;11851;50.796;4.372;2022-09-09T06:31:08;17.50;99.90
23359;DHT22;11851;50.796;4.372;2022-09-09T06:33:37;17.60;99.90
23359;DHT22;11851;50.796;4.372;2022-09-09T06:36:04;17.60;99.90
23359;DHT22;11851;50.796;4.372;2022-09-09T06:38:30;17.70;99.90
23359;DHT22;11851;50.796;4.372;2022-09-09T06:40:58;17.70;99.90
23359;DHT22;11851;50.796;4.372;2022-09-09T06:43:25;17.60;99.90
23359;DHT22;11851;50.796;4.372;2022-09-09T06:45:58;17.60;99.90
23359;DHT22;11851;50.796;4.372;2022-09-09T06:48:24;17.60;99.90
23359;DHT22;11851;50.796;4.372;2022-09-09T06:53:29;17.70;99.90
23359;DHT22;11851;50.796;4.372;2022-09-09T06:55:54;17.70;99.90
23359;DHT22;11851;50.796;4.372;2022-09-09T06:58:20;17.80;99.90
23359;DHT22;11851;50.796;4.372;2022-09-09T07:00:48;17.80;99.90
23359;DHT22;11851;50.796;4.372;2022-09-09T07:03:15;17.80;99.90
23359;DHT22;11851;50.796;4.372;2022-09-09T07:05:40;17.80;99.90
23359;DHT22;11851;50.796;4.372;2022-09-09T07:08:06;17.90;99.90
23359;DHT22;11851;50.796;4.372;2022-09-09T07:10:32;18.00;99.90
23359;DHT22;11851;50.796;4.372;2022-09-09T07:12:59;18.00;99.90
23359;DHT22;11851;50.796;4.372;2022-09-09T07:15:25;18.00;99.90
23359;DHT22;11851;50.796;4.372;2022-09-09T07:17:51;18.00;99.90
23359;DHT22;11851;50.796;4.372;2022-09-09T07:20:19;17.90;99.90
23359;DHT22;11851;50.796;4.372;2022-09-09T07:22:45;18.00;99.90
23359;DHT22;11851;50.796;4.372;2022-09-09T07:25:11;17.90;99.90
23359;DHT22;11851;50.796;4.372;2022-09-09T07:27:37;17.90;99.90
23359;DHT22;11851;50.796;4.372;2022-09-09T07:30:03;18.00;99.90
23359;DHT22;11851;50.796;4.372;2022-09-09T07:32:29;18.00;99.90
23359;DHT22;11851;50.796;4.372;2022-09-09T07:34:55;17.90;99.90
23359;DHT22;11851;50.796;4.372;2022-09-09T07:37:23;18.00;99.90
23359;DHT22;11851;50.796;4.372;2022-09-09T07:39:49;18.00;99.90
23359;DHT22;11851;50.796;4.372;2022-09-09T07:42:16;17.70;99.90
23359;DHT22;11851;50.796;4.372;2022-09-09T07:44:42;17.60;99.90
23359;DHT22;11851;50.796;4.372;2022-09-09T07:47:08;17.50;99.90
23359;DHT22;11851;50.796;4.372;2022-09-09T07:49:34;17.50;99.90
23359;DHT22;11851;50.796;4.372;2022-09-09T07:52:00;17.60;99.90
23359;DHT22;11851;50.796;4.372;2022-09-09T07:54:26;17.60;99.90
23359;DHT22;11851;50.796;4.372;2022-09-09T07:56:52;17.60;99.90
23359;DHT22;11851;50.796;4.372;2022-09-09T07:59:19;17.80;99.90
23359;DHT22;11851;50.796;4.372;2022-09-09T08:01:50;17.90;99.90
23359;DHT22;11851;50.796;4.372;2022-09-09T08:04:21;17.80;99.90
23359;DHT22;11851;50.796;4.372;2022-09-09T08:06:52;17.90;99.90
23359;DHT22;11851;50.796;4.372;2022-09-09T08:09:19;18.10;99.90
23359;DHT22;11851;50.796;4.372;2022-09-09T08:11:46;18.10;99.90
23359;DHT22;11851;50.796;4.372;2022-09-09T08:14:13;18.20;99.90
23359;DHT22;11851;50.796;4.372;2022-09-09T08:16:41;18.20;99.90
23359;DHT22;11851;50.796;4.372;2022-09-09T08:19:07;18.50;99.90
23359;DHT22;11851;50.796;4.372;2022-09-09T08:21:35;18.50;99.90
23359;DHT22;11851;50.796;4.372;2022-09-09T08:24:03;18.40;99.90
23359;DHT22;11851;50.796;4.372;2022-09-09T08:26:38;18.50;99.90
23359;DHT22;11851;50.796;4.372;2022-09-09T08:29:06;18.50;99.90
23359;DHT22;11851;50.796;4.372;2022-09-09T08:31:38;18.70;99.90
23359;DHT22;11851;50.796;4.372;2022-09-09T08:34:04;18.80;99.90
23359;DHT22;11851;50.796;4.372;2022-09-09T08:36:33;18.80;99.90
23359;DHT22;11851;50.796;4.372;2022-09-09T08:39:00;18.90;99.90
23359;DHT22;11851;50.796;4.372;2022-09-09T08:49:54;18.40;99.90
23359;DHT22;11851;50.796;4.372;2022-09-09T08:52:27;18.60;99.90
23359;DHT22;11851;50.796;4.372;2022-09-09T08:54:56;18.30;99.90
23359;DHT22;11851;50.796;4.372;2022-09-09T08:57:27;18.30;99.90
23359;DHT22;11851;50.796;4.372;2022-09-09T08:59:54;18.40;99.90
23359;DHT22;11851;50.796;4.372;2022-09-09T09:05:31;18.60;99.90
23359;DHT22;11851;50.796;4.372;2022-09-09T09:08:16;18.50;99.90
23359;DHT22;11851;50.796;4.372;2022-09-09T09:10:47;18.40;99.90
23359;DHT22;11851;50.796;4.372;2022-09-09T09:15:42;18.50;99.90
23359;DHT22;11851;50.796;4.372;2022-09-09T09:18:12;18.50;99.90
23359;DHT22;11851;50.796;4.372;2022-09-09T09:21:05;18.40;99.90
23359;DHT22;11851;50.796;4.372;2022-09-09T09:23:47;18.30;99.90
23359;DHT22;11851;50.796;4.372;2022-09-09T09:26:16;18.10;99.90
23359;DHT22;11851;50.796;4.372;2022-09-09T09:28:43;17.90;99.90
23359;DHT22;11851;50.796;4.372;2022-09-09T09:31:10;17.80;99.90
23359;DHT22;11851;50.796;4.372;2022-09-09T09:36:15;17.70;99.90
23359;DHT22;11851;50.796;4.372;2022-09-09T09:39:02;17.70;99.90
23359;DHT22;11851;50.796;4.372;2022-09-09T09:41:38;17.80;99.90
23359;DHT22;11851;50.796;4.372;2022-09-09T09:44:05;17.70;99.90
23359;DHT22;11851;50.796;4.372;2022-09-09T09:46:31;17.80;99.90
23359;DHT22;11851;50.796;4.372;2022-09-09T09:49:09;17.90;99.90
23359;DHT22;11851;50.796;4.372;2022-09-09T09:51:35;17.90;99.90
23359;DHT22;11851;50.796;4.372;2022-09-09T09:56:41;17.90;99.90
23359;DHT22;11851;50.796;4.372;2022-09-09T09:59:23;17.90;99.90
23359;DHT22;11851;50.796;4.372;2022-09-09T10:01:49;17.90;99.90
23359;DHT22;11851;50.796;4.372;2022-09-09T10:04:18;18.00;99.90
23359;DHT22;11851;50.796;4.372;2022-09-09T10:06:46;18.00;99.90
23359;DHT22;11851;50.796;4.372;2022-09-09T10:09:26;18.00;99.90
23359;DHT22;11851;50.796;4.372;2022-09-09T10:22:45;17.70;99.90
23359;DHT22;11851;50.796;4.372;2022-09-09T10:28:30;17.80;99.90
23359;DHT22;11851;50.796;4.372;2022-09-09T10:36:25;18.20;99.90
23359;DHT22;11851;50.796;4.372;2022-09-09T10:39:10;18.40;99.90
23359;DHT22;11851;50.796;4.372;2022-09-09T10:47:17;18.50;99.90
23359;DHT22;11851;50.796;4.372;2022-09-09T10:55:13;18.80;99.90
23359;DHT22;11851;50.796;4.372;2022-09-09T10:57:51;19.00;99.90
23359;DHT22;11851;50.796;4.372;2022-09-09T11:00:23;19.10;99.90
23359;DHT22;11851;50.796;4.372;2022-09-09T11:02:59;19.00;99.90
23359;DHT22;11851;50.796;4.372;2022-09-09T11:05:34;19.20;99.90
23359;DHT22;11851;50.796;4.372;2022-09-09T11:08:10;19.30;99.90
23359;DHT22;11851;50.796;4.372;2022-09-09T11:16:12;19.30;99.90
23359;DHT22;11851;50.796;4.372;2022-09-09T11:18:41;19.40;99.90
23359;DHT22;11851;50.796;4.372;2022-09-09T11:21:22;19.50;99.90
23359;DHT22;11851;50.796;4.372;2022-09-09T11:23:57;19.50;99.90
23359;DHT22;11851;50.796;4.372;2022-09-09T11:26:38;19.50;99.90
23359;DHT22;11851;50.796;4.372;2022-09-09T11:40:25;19.60;99.90
23359;DHT22;11851;50.796;4.372;2022-09-09T11:43:04;19.50;99.90
23359;DHT22;11851;50.796;4.372;2022-09-09T11:45:32;19.50;99.90
23359;DHT22;11851;50.796;4.372;2022-09-09T11:48:00;19.40;99.90
23359;DHT22;11851;50.796;4.372;2022-09-09T11:55:46;19.40;99.90
23359;DHT22;11851;50.796;4.372;2022-09-09T12:00:38;19.40;99.90
23359;DHT22;11851;50.796;4.372;2022-09-09T12:03:06;19.50;99.90
23359;DHT22;11851;50.796;4.372;2022-09-09T12:05:51;19.50;99.90
23359;DHT22;11851;50.796;4.372;2022-09-09T12:08:26;19.50;99.90
23359;DHT22;11851;50.796;4.372;2022-09-09T12:10:57;19.60;99.90
23359;DHT22;11851;50.796;4.372;2022-09-09T12:13:25;19.60;99.90
23359;DHT22;11851;50.796;4.372;2022-09-09T12:15:54;19.70;99.90
23359;DHT22;11851;50.796;4.372;2022-09-09T12:18:33;19.60;99.90
23359;DHT22;11851;50.796;4.372;2022-09-09T12:22:03;19.60;99.90
23359;DHT22;11851;50.796;4.372;2022-09-09T12:24:13;19.50;99.90
23359;DHT22;11851;50.796;4.372;2022-09-09T12:26:41;19.50;99.90
23359;DHT22;11851;50.796;4.372;2022-09-09T12:34:16;19.60;99.90
23359;DHT22;11851;50.796;4.372;2022-09-09T12:36:44;19.70;99.90
23359;DHT22;11851;50.796;4.372;2022-09-09T12:39:44;19.80;99.90
23359;DHT22;11851;50.796;4.372;2022-09-09T12:42:19;20.00;99.90
23359;DHT22;11851;50.796;4.372;2022-09-09T12:44:53;20.10;99.90
23359;DHT22;11851;50.796;4.372;2022-09-09T12:47:24;20.20;99.90
23359;DHT22;11851;50.796;4.372;2022-09-09T12:49:50;20.30;99.90
23359;DHT22;11851;50.796;4.372;2022-09-09T12:52:23;20.50;99.90
23359;DHT22;11851;50.796;4.372;2022-09-09T12:54:52;20.60;99.90
23359;DHT22;11851;50.796;4.372;2022-09-09T12:57:20;20.70;99.90
23359;DHT22;11851;50.796;4.372;2022-09-09T12:59:48;20.70;99.90
23359;DHT22;11851;50.796;4.372;2022-09-09T13:02:21;20.50;99.90
23359;DHT22;11851;50.796;4.372;2022-09-09T13:04:51;20.40;99.90
23359;DHT22;11851;50.796;4.372;2022-09-09T13:07:24;20.40;99.90
23359;DHT22;11851;50.796;4.372;2022-09-09T13:09:53;20.50;99.90
23359;DHT22;11851;50.796;4.372;2022-09-09T13:12:21;20.60;99.90
23359;DHT22;11851;50.796;4.372;2022-09-09T13:14:55;20.70;99.90
23359;DHT22;11851;50.796;4.372;2022-09-09T13:17:23;20.70;99.90
23359;DHT22;11851;50.796;4.372;2022-09-09T13:19:50;20.80;99.90
23359;DHT22;11851;50.796;4.372;2022-09-09T13:22:33;20.90;99.90
23359;DHT22;11851;50.796;4.372;2022-09-09T13:25:21;21.00;99.90
23359;DHT22;11851;50.796;4.372;2022-09-09T13:27:59;21.10;99.90
23359;DHT22;11851;50.796;4.372;2022-09-09T13:30:32;21.30;99.90
23359;DHT22;11851;50.796;4.372;2022-09-09T13:35:55;21.70;99.90
23359;DHT22;11851;50.796;4.372;2022-09-09T13:38:22;21.80;99.90
23359;DHT22;11851;50.796;4.372;2022-09-09T13:40:59;22.10;99.90
23359;DHT22;11851;50.796;4.372;2022-09-09T13:43:27;22.20;99.90
23359;DHT22;11851;50.796;4.372;2022-09-09T13:46:04;21.90;99.90
23359;DHT22;11851;50.796;4.372;2022-09-09T13:48:31;21.90;99.90
23359;DHT22;11851;50.796;4.372;2022-09-09T13:51:02;22.00;99.90
23359;DHT22;11851;50.796;4.372;2022-09-09T13:53:30;22.40;99.90
23359;DHT22;11851;50.796;4.372;2022-09-09T13:55:57;22.40;99.90
23359;DHT22;11851;50.796;4.372;2022-09-09T13:58:23;22.20;99.90
23359;DHT22;11851;50.796;4.372;2022-09-09T14:00:51;21.90;99.90
23359;DHT22;11851;50.796;4.372;2022-09-09T14:03:17;21.80;99.90
23359;DHT22;11851;50.796;4.372;2022-09-09T14:05:44;21.70;99.90
23359;DHT22;11851;50.796;4.372;2022-09-09T14:08:15;21.70;99.90
23359;DHT22;11851;50.796;4.372;2022-09-09T14:10:41;21.80;99.90
23359;DHT22;11851;50.796;4.372;2022-09-09T14:13:07;22.30;99.90
23359;DHT22;11851;50.796;4.372;2022-09-09T14:15:33;22.90;99.90
23359;DHT22;11851;50.796;4.372;2022-09-09T14:17:59;23.00;99.90
23359;DHT22;11851;50.796;4.372;2022-09-09T14:20:24;22.70;99.90
23359;DHT22;11851;50.796;4.372;2022-09-09T14:22:50;22.30;99.90
23359;DHT22;11851;50.796;4.372;2022-09-09T14:25:16;22.00;99.90
23359;DHT22;11851;50.796;4.372;2022-09-09T14:27:42;21.80;99.90
23359;DHT22;11851;50.796;4.372;2022-09-09T14:30:09;21.80;99.90
23359;DHT22;11851;50.796;4.372;2022-09-09T14:32:35;21.80;99.90
23359;DHT22;11851;50.796;4.372;2022-09-09T14:35:00;21.70;99.90
23359;DHT22;11851;50.796;4.372;2022-09-09T14:37:27;21.80;99.90
23359;DHT22;11851;50.796;4.372;2022-09-09T14:39:52;22.00;99.90
23359;DHT22;11851;50.796;4.372;2022-09-09T14:42:19;22.20;99.90
23359;DHT22;11851;50.796;4.372;2022-09-09T14:44:45;22.20;99.90
23359;DHT22;11851;50.796;4.372;2022-09-09T14:47:10;22.00;99.90
23359;DHT22;11851;50.796;4.372;2022-09-09T14:49:36;22.00;99.90
23359;DHT22;11851;50.796;4.372;2022-09-09T14:52:03;22.50;99.90
23359;DHT22;11851;50.796;4.372;2022-09-09T14:54:30;23.70;99.90
23359;DHT22;11851;50.796;4.372;2022-09-09T14:56:56;24.80;99.90
23359;DHT22;11851;50.796;4.372;2022-09-09T14:59:23;24.90;99.90
23359;DHT22;11851;50.796;4.372;2022-09-09T15:01:48;24.50;99.90
23359;DHT22;11851;50.796;4.372;2022-09-09T15:04:14;24.10;99.90
23359;DHT22;11851;50.796;4.372;2022-09-09T15:06:40;23.80;99.90
23359;DHT22;11851;50.796;4.372;2022-09-09T15:09:08;23.60;99.90
23359;DHT22;11851;50.796;4.372;2022-09-09T15:11:36;23.40;99.90
23359;DHT22;11851;50.796;4.372;2022-09-09T15:14:06;23.60;99.90
23359;DHT22;11851;50.796;4.372;2022-09-09T15:16:32;24.70;99.90
23359;DHT22;11851;50.796;4.372;2022-09-09T15:18:59;25.30;99.90
23359;DHT22;11851;50.796;4.372;2022-09-09T15:21:30;25.10;99.90
23359;DHT22;11851;50.796;4.372;2022-09-09T15:23:57;24.60;99.90
23359;DHT22;11851;50.796;4.372;2022-09-09T15:26:23;24.10;99.90
23359;DHT22;11851;50.796;4.372;2022-09-09T15:28:49;23.70;99.90
23359;DHT22;11851;50.796;4.372;2022-09-09T15:31:20;23.30;99.90
23359;DHT22;11851;50.796;4.372;2022-09-09T15:33:50;22.90;99.90
23359;DHT22;11851;50.796;4.372;2022-09-09T15:36:23;22.60;99.90
23359;DHT22;11851;50.796;4.372;2022-09-09T15:38:50;22.40;99.90
23359;DHT22;11851;50.796;4.372;2022-09-09T15:41:17;22.10;99.90
23359;DHT22;11851;50.796;4.372;2022-09-09T15:43:44;22.10;99.90
23359;DHT22;11851;50.796;4.372;2022-09-09T15:51:30;22.10;99.90
23359;DHT22;11851;50.796;4.372;2022-09-09T15:53:57;22.30;99.90
23359;DHT22;11851;50.796;4.372;2022-09-09T15:56:24;22.40;99.90
23359;DHT22;11851;50.796;4.372;2022-09-09T15:58:50;22.60;99.90
23359;DHT22;11851;50.796;4.372;2022-09-09T16:01:18;22.60;99.90
23359;DHT22;11851;50.796;4.372;2022-09-09T16:03:44;22.70;99.90
23359;DHT22;11851;50.796;4.372;2022-09-09T16:06:13;22.70;99.90
23359;DHT22;11851;50.796;4.372;2022-09-09T16:08:41;22.50;99.90
23359;DHT22;11851;50.796;4.372;2022-09-09T16:11:16;22.30;99.90
23359;DHT22;11851;50.796;4.372;2022-09-09T16:13:45;22.00;99.90
23359;DHT22;11851;50.796;4.372;2022-09-09T16:16:12;21.90;99.90
23359;DHT22;11851;50.796;4.372;2022-09-09T16:18:47;21.80;99.90
23359;DHT22;11851;50.796;4.372;2022-09-09T16:21:18;21.60;99.90
23359;DHT22;11851;50.796;4.372;2022-09-09T16:23:44;21.40;99.90
23359;DHT22;11851;50.796;4.372;2022-09-09T16:26:15;21.30;99.90
23359;DHT22;11851;50.796;4.372;2022-09-09T16:28:42;20.70;99.90
23359;DHT22;11851;50.796;4.372;2022-09-09T16:31:10;20.30;99.90
23359;DHT22;11851;50.796;4.372;2022-09-09T16:33:37;20.10;99.90
23359;DHT22;11851;50.796;4.372;2022-09-09T16:36:14;19.80;99.90
23359;DHT22;11851;50.796;4.372;2022-09-09T16:38:40;19.50;99.90
23359;DHT22;11851;50.796;4.372;2022-09-09T16:41:09;19.30;99.90
23359;DHT22;11851;50.796;4.372;2022-09-09T16:43:35;19.40;99.90
23359;DHT22;11851;50.796;4.372;2022-09-09T16:46:12;19.40;99.90
23359;DHT22;11851;50.796;4.372;2022-09-09T16:48:39;19.40;99.90
23359;DHT22;11851;50.796;4.372;2022-09-09T16:51:06;19.40;99.90
23359;DHT22;11851;50.796;4.372;2022-09-09T16:53:33;19.40;99.90
23359;DHT22;11851;50.796;4.372;2022-09-09T16:56:05;19.40;99.90
23359;DHT22;11851;50.796;4.372;2022-09-09T16:58:31;19.40;99.90
23359;DHT22;11851;50.796;4.372;2022-09-09T17:01:03;19.40;99.90
23359;DHT22;11851;50.796;4.372;2022-09-09T17:03:29;19.30;99.90
23359;DHT22;11851;50.796;4.372;2022-09-09T17:05:55;19.30;99.90
23359;DHT22;11851;50.796;4.372;2022-09-09T17:08:20;19.30;99.90
23359;DHT22;11851;50.796;4.372;2022-09-09T17:10:46;19.40;99.90
23359;DHT22;11851;50.796;4.372;2022-09-09T17:13:13;19.50;99.90
23359;DHT22;11851;50.796;4.372;2022-09-09T17:15:42;19.50;99.90
23359;DHT22;11851;50.796;4.372;2022-09-09T17:18:09;19.60;99.90
23359;DHT22;11851;50.796;4.372;2022-09-09T17:20:37;19.70;99.90
23359;DHT22;11851;50.796;4.372;2022-09-09T17:23:04;19.80;99.90
23359;DHT22;11851;50.796;4.372;2022-09-09T17:25:29;20.30;99.90
23359;DHT22;11851;50.796;4.372;2022-09-09T17:27:55;20.90;99.90
23359;DHT22;11851;50.796;4.372;2022-09-09T17:30:21;21.30;99.90
23359;DHT22;11851;50.796;4.372;2022-09-09T17:32:47;21.60;99.90
23359;DHT22;11851;50.796;4.372;2022-09-09T17:35:13;21.50;99.90
23359;DHT22;11851;50.796;4.372;2022-09-09T17:37:38;21.40;99.90
23359;DHT22;11851;50.796;4.372;2022-09-09T17:40:04;21.30;99.90
23359;DHT22;11851;50.796;4.372;2022-09-09T17:42:30;21.10;99.90
23359;DHT22;11851;50.796;4.372;2022-09-09T17:44:56;21.10;99.90
23359;DHT22;11851;50.796;4.372;2022-09-09T17:47:22;21.10;99.90
23359;DHT22;11851;50.796;4.372;2022-09-09T17:49:47;21.00;99.90
23359;DHT22;11851;50.796;4.372;2022-09-09T17:52:13;20.70;99.90
23359;DHT22;11851;50.796;4.372;2022-09-09T17:54:40;20.50;99.90
23359;DHT22;11851;50.796;4.372;2022-09-09T17:57:06;20.20;99.90
23359;DHT22;11851;50.796;4.372;2022-09-09T17:59:32;20.00;99.90
23359;DHT22;11851;50.796;4.372;2022-09-09T18:01:58;19.80;99.90
23359;DHT22;11851;50.796;4.372;2022-09-09T18:04:24;19.70;99.90
23359;DHT22;11851;50.796;4.372;2022-09-09T18:06:51;19.50;99.90
23359;DHT22;11851;50.796;4.372;2022-09-09T18:09:21;19.40;99.90
23359;DHT22;11851;50.796;4.372;2022-09-09T18:11:50;19.30;99.90